createdAt,value
2018-06-16T00:00:55.610Z,60.30
2018-06-16T00:03:23.853Z,60.40
2018-06-16T00:05:52.027Z,60.70
2018-06-16T00:08:20.188Z,60.90
2018-06-16T00:10:48.394Z,61.10
2018-06-16T00:13:16.577Z,61.20
2018-06-16T00:15:44.743Z,61.40
2018-06-16T00:18:12.901Z,61.50
2018-06-16T00:20:41.068Z,61.80
2018-06-16T00:23:09.229Z,61.90
2018-06-16T00:25:37.417Z,61.90
2018-06-16T00:28:05.570Z,61.90
2018-06-16T00:30:33.751Z,61.90
2018-06-16T00:33:01.906Z,62.10
2018-06-16T00:35:30.078Z,62.00
2018-06-16T00:37:58.241Z,62.10
2018-06-16T00:40:26.401Z,62.10
2018-06-16T00:42:54.580Z,61.90
2018-06-16T00:45:22.758Z,61.90
2018-06-16T00:47:50.904Z,61.80
2018-06-16T00:50:19.082Z,61.70
2018-06-16T00:52:47.254Z,61.60
2018-06-16T00:55:15.431Z,61.70
2018-06-16T00:57:48.202Z,61.70
2018-06-16T01:00:17.482Z,61.70
2018-06-16T01:02:45.937Z,61.90
2018-06-16T01:05:14.125Z,62.00
2018-06-16T01:07:42.276Z,62.50
2018-06-16T01:10:11.312Z,62.10
2018-06-16T01:12:39.757Z,62.20
2018-06-16T01:15:07.909Z,62.20
2018-06-16T01:17:36.082Z,63.20
2018-06-16T01:20:04.645Z,62.60
2018-06-16T01:22:32.813Z,62.70
2018-06-16T01:25:01.101Z,62.90
2018-06-16T01:27:29.618Z,62.90
2018-06-16T01:29:57.889Z,63.00
2018-06-16T01:32:26.085Z,63.70
2018-06-16T01:34:54.301Z,63.10
2018-06-16T01:37:22.467Z,63.20
2018-06-16T01:39:50.620Z,63.20
2018-06-16T01:42:18.801Z,63.30
2018-06-16T01:44:46.961Z,63.40
2018-06-16T01:47:15.126Z,63.40
2018-06-16T01:49:43.286Z,63.50
2018-06-16T01:52:11.461Z,63.50
2018-06-16T01:54:39.620Z,63.50
2018-06-16T01:57:07.782Z,63.50
2018-06-16T01:59:35.950Z,63.60
2018-06-16T02:02:04.122Z,63.60
2018-06-16T02:04:32.273Z,63.70
2018-06-16T02:07:00.443Z,63.60
2018-06-16T02:09:28.590Z,63.70
2018-06-16T02:11:56.785Z,63.80
2018-06-16T02:14:24.942Z,64.00
2018-06-16T02:16:53.099Z,64.10
2018-06-16T02:19:21.253Z,64.10
2018-06-16T02:21:49.419Z,64.20
2018-06-16T02:24:17.576Z,64.20
2018-06-16T02:26:45.729Z,64.30
2018-06-16T02:29:13.896Z,64.30
2018-06-16T02:31:42.037Z,64.30
2018-06-16T02:34:10.216Z,64.40
2018-06-16T02:36:38.386Z,64.40
2018-06-16T02:39:08.055Z,64.50
2018-06-16T02:41:36.246Z,64.50
2018-06-16T02:44:04.402Z,64.60
2018-06-16T02:46:32.569Z,64.70
2018-06-16T02:49:00.750Z,64.80
2018-06-16T02:51:28.890Z,64.90
2018-06-16T02:53:57.059Z,64.90
2018-06-16T02:56:25.214Z,65.00
2018-06-16T02:58:53.385Z,65.00
2018-06-16T03:01:21.552Z,65.10
2018-06-16T03:03:49.703Z,65.10
2018-06-16T03:06:17.868Z,65.10
2018-06-16T03:08:46.055Z,65.20
2018-06-16T03:11:14.211Z,65.30
2018-06-16T03:13:42.381Z,65.30
2018-06-16T03:16:10.545Z,65.30
2018-06-16T03:18:38.694Z,65.40
2018-06-16T03:21:06.949Z,65.50
2018-06-16T03:23:35.127Z,65.70
2018-06-16T03:26:03.298Z,65.80
2018-06-16T03:28:31.459Z,66.00
2018-06-16T03:30:59.621Z,66.00
2018-06-16T03:33:27.809Z,66.70
2018-06-16T03:35:56.053Z,66.10
2018-06-16T03:38:24.298Z,66.10
2018-06-16T03:40:52.445Z,66.00
2018-06-16T03:43:20.605Z,66.00
2018-06-16T03:45:48.775Z,65.90
2018-06-16T03:48:16.937Z,65.90
2018-06-16T03:50:45.102Z,65.90
2018-06-16T03:53:13.313Z,65.80
2018-06-16T03:55:41.486Z,65.80
2018-06-16T03:58:09.642Z,65.80
2018-06-16T04:00:37.793Z,65.70
2018-06-16T04:03:06.127Z,65.70
2018-06-16T04:05:34.308Z,65.70
2018-06-16T04:08:02.444Z,65.70
2018-06-16T04:10:30.600Z,65.70
2018-06-16T04:12:58.756Z,65.70
2018-06-16T04:15:26.925Z,65.50
2018-06-16T04:17:55.080Z,65.60
2018-06-16T04:20:23.252Z,65.50
2018-06-16T04:22:51.408Z,65.50
2018-06-16T04:25:19.562Z,65.50
2018-06-16T04:27:47.725Z,65.60
2018-06-16T04:30:15.867Z,65.70
2018-06-16T04:32:44.054Z,65.80
2018-06-16T04:35:12.214Z,65.70
2018-06-16T04:37:40.393Z,65.70
2018-06-16T04:40:08.557Z,65.70
2018-06-16T04:42:36.726Z,65.60
2018-06-16T04:45:05.113Z,65.50
2018-06-16T04:47:33.324Z,65.20
2018-06-16T04:50:01.492Z,65.20
2018-06-16T04:52:29.654Z,64.80
2018-06-16T04:54:57.809Z,64.60
2018-06-16T04:57:25.990Z,64.40
2018-06-16T04:59:54.145Z,64.50
2018-06-16T05:02:22.341Z,65.20
2018-06-16T05:04:50.553Z,64.20
2018-06-16T05:07:18.721Z,64.10
2018-06-16T05:09:46.874Z,63.90
2018-06-16T05:12:15.034Z,63.80
2018-06-16T05:14:43.201Z,63.80
2018-06-16T05:17:11.501Z,63.70
2018-06-16T05:19:39.663Z,63.60
2018-06-16T05:22:07.831Z,63.30
2018-06-16T05:24:36.006Z,63.30
2018-06-16T05:27:04.158Z,63.30
2018-06-16T05:29:32.318Z,63.10
2018-06-16T05:32:00.597Z,63.00
2018-06-16T05:34:28.763Z,62.90
2018-06-16T05:36:56.922Z,62.80
2018-06-16T05:39:25.080Z,62.70
2018-06-16T05:41:53.240Z,62.70
2018-06-16T05:44:21.421Z,62.60
2018-06-16T05:46:49.586Z,62.70
2018-06-16T05:49:17.807Z,62.80
2018-06-16T05:51:45.958Z,63.10
2018-06-16T05:54:14.124Z,63.00
2018-06-16T05:56:42.305Z,63.30
2018-06-16T05:59:10.535Z,63.30
2018-06-16T06:01:38.701Z,63.40
2018-06-16T06:04:06.890Z,63.50
2018-06-16T06:06:35.091Z,63.60
2018-06-16T06:09:03.427Z,63.70
2018-06-16T06:11:31.610Z,63.90
2018-06-16T06:13:59.813Z,63.90
2018-06-16T06:16:27.996Z,63.90
2018-06-16T06:18:56.161Z,64.00
2018-06-16T06:21:24.324Z,64.00
2018-06-16T06:23:52.480Z,63.90
2018-06-16T06:26:20.670Z,63.80
2018-06-16T06:28:48.853Z,63.80
2018-06-16T06:31:17.043Z,64.40
2018-06-16T06:33:45.221Z,64.10
2018-06-16T06:36:13.389Z,64.00
2018-06-16T06:38:41.571Z,63.80
2018-06-16T06:41:09.737Z,63.90
2018-06-16T06:43:37.890Z,64.00
2018-06-16T06:46:06.085Z,64.00
2018-06-16T06:48:34.250Z,64.00
2018-06-16T06:51:02.403Z,63.90
2018-06-16T06:53:30.593Z,63.70
2018-06-16T06:55:58.754Z,63.60
2018-06-16T06:58:26.941Z,63.60
2018-06-16T07:00:55.105Z,63.60
2018-06-16T07:03:23.326Z,63.70
2018-06-16T07:05:51.491Z,63.80
2018-06-16T07:08:19.666Z,63.20
2018-06-16T07:10:47.944Z,63.20
2018-06-16T07:13:16.110Z,63.20
2018-06-16T07:15:44.261Z,62.90
2018-06-16T07:18:12.415Z,62.80
2018-06-16T07:20:40.561Z,64.00
2018-06-16T07:23:08.976Z,66.40
2018-06-16T07:25:37.145Z,65.20
2018-06-16T07:28:05.446Z,64.40
2018-06-16T07:30:33.601Z,64.80
2018-06-16T07:33:01.858Z,64.80
2018-06-16T07:35:30.014Z,64.30
2018-06-16T07:37:58.272Z,63.90
2018-06-16T07:40:26.426Z,64.20
2018-06-16T07:42:54.596Z,64.00
2018-06-16T07:47:50.705Z,63.40
2018-06-16T07:50:18.875Z,62.80
2018-06-16T07:52:47.046Z,62.00
2018-06-16T07:55:15.246Z,63.40
2018-06-16T07:57:43.473Z,63.00
2018-06-16T08:00:11.629Z,62.80
2018-06-16T08:02:39.782Z,62.70
2018-06-16T08:05:08.451Z,62.90
2018-06-16T08:07:36.592Z,62.50
2018-06-16T08:10:04.785Z,61.80
2018-06-16T08:12:32.947Z,61.60
2018-06-16T08:15:01.344Z,62.80
2018-06-16T08:17:29.507Z,61.70
2018-06-16T08:19:57.666Z,61.10
2018-06-16T08:22:25.874Z,60.80
2018-06-16T08:24:54.558Z,60.70
2018-06-16T08:27:22.714Z,61.20
2018-06-16T08:29:50.879Z,61.00
2018-06-16T08:32:19.385Z,60.40
2018-06-16T08:34:47.616Z,60.00
2018-06-16T08:37:15.727Z,59.60
2018-06-16T08:39:43.893Z,59.40
2018-06-16T08:42:12.029Z,59.40
2018-06-16T08:44:40.204Z,60.30
2018-06-16T08:47:08.396Z,60.30
2018-06-16T08:49:36.564Z,60.20
2018-06-16T08:52:04.744Z,60.30
2018-06-16T08:54:32.919Z,59.90
2018-06-16T08:57:01.082Z,59.20
2018-06-16T08:59:29.230Z,59.00
2018-06-16T09:01:57.578Z,59.10
2018-06-16T09:04:25.737Z,59.00
2018-06-16T09:06:53.956Z,58.60
2018-06-16T09:09:22.386Z,58.40
2018-06-16T09:11:50.542Z,58.20
2018-06-16T09:14:18.689Z,58.90
2018-06-16T09:16:46.873Z,58.10
2018-06-16T09:19:15.034Z,58.00
2018-06-16T09:21:43.181Z,57.40
2018-06-16T09:24:11.373Z,57.10
2018-06-16T09:26:39.818Z,56.80
2018-06-16T09:29:08.006Z,56.80
2018-06-16T09:31:36.164Z,56.60
2018-06-16T09:34:04.313Z,56.50
2018-06-16T09:36:32.473Z,56.70
2018-06-16T09:39:00.631Z,56.80
2018-06-16T09:41:28.796Z,56.70
2018-06-16T09:43:56.942Z,56.30
2018-06-16T09:46:25.105Z,56.00
2018-06-16T09:48:53.290Z,55.90
2018-06-16T09:51:21.454Z,55.50
2018-06-16T09:53:49.664Z,55.30
2018-06-16T09:56:17.812Z,55.30
2018-06-16T09:58:45.970Z,54.90
2018-06-16T10:01:14.129Z,54.70
2018-06-16T10:03:42.282Z,54.50
2018-06-16T10:06:10.596Z,54.20
2018-06-16T10:11:06.988Z,54.30
2018-06-16T10:13:35.160Z,54.10
2018-06-16T10:16:03.392Z,54.00
2018-06-16T10:18:31.484Z,54.10
2018-06-16T10:20:59.629Z,54.00
2018-06-16T10:23:27.804Z,54.10
2018-06-16T10:25:55.959Z,53.80
2018-06-16T10:28:24.217Z,53.40
2018-06-16T10:30:52.366Z,53.30
2018-06-16T10:33:20.555Z,53.60
2018-06-16T10:35:48.725Z,53.30
2018-06-16T10:38:16.959Z,53.10
2018-06-16T10:40:45.141Z,52.80
2018-06-16T10:45:41.257Z,52.70
2018-06-16T10:48:09.417Z,53.10
2018-06-16T10:50:37.679Z,52.50
2018-06-16T10:53:05.894Z,52.70
2018-06-16T10:58:01.981Z,53.10
2018-06-16T11:00:30.226Z,53.20
2018-06-16T11:02:58.361Z,52.70
2018-06-16T11:05:26.601Z,52.50
2018-06-16T11:07:54.754Z,52.20
2018-06-16T11:10:23.769Z,52.20
2018-06-16T11:12:51.936Z,52.80
2018-06-16T11:15:20.125Z,52.40
2018-06-16T11:17:48.270Z,52.00
2018-06-16T11:20:16.452Z,51.40
2018-06-16T11:22:44.605Z,51.30
2018-06-16T11:27:40.720Z,51.10
2018-06-16T11:30:08.895Z,51.60
2018-06-16T11:32:37.094Z,50.70
2018-06-16T11:35:05.293Z,51.10
2018-06-16T11:37:33.437Z,51.00
2018-06-16T11:40:01.597Z,50.70
2018-06-16T11:42:29.751Z,50.50
2018-06-16T11:44:57.945Z,50.60
2018-06-16T11:47:26.090Z,50.60
2018-06-16T11:49:54.269Z,50.10
2018-06-16T11:52:22.425Z,50.60
2018-06-16T11:54:50.573Z,50.00
2018-06-16T11:57:18.752Z,50.00
2018-06-16T11:59:46.895Z,50.10
2018-06-16T12:02:15.050Z,49.80
2018-06-16T12:04:43.205Z,50.00
2018-06-16T12:07:11.378Z,50.50
2018-06-16T12:09:39.519Z,50.40
2018-06-16T12:12:07.690Z,50.20
2018-06-16T12:14:35.866Z,50.50
2018-06-16T12:17:04.150Z,50.30
2018-06-16T12:19:32.383Z,50.30
2018-06-16T12:22:00.605Z,50.20
2018-06-16T12:26:56.618Z,50.00
2018-06-16T12:29:24.757Z,49.30
2018-06-16T12:31:52.905Z,48.90
2018-06-16T12:34:21.074Z,48.60
2018-06-16T12:36:49.240Z,48.60
2018-06-16T12:39:17.409Z,48.30
2018-06-16T12:41:45.596Z,48.60
2018-06-16T12:44:13.753Z,48.70
2018-06-16T12:46:41.983Z,48.50
2018-06-16T12:49:10.129Z,48.40
2018-06-16T12:51:38.338Z,48.80
2018-06-16T12:59:02.388Z,48.80
2018-06-16T13:01:30.553Z,49.10
2018-06-16T13:03:58.690Z,48.90
2018-06-16T13:06:26.841Z,48.90
2018-06-16T13:08:55.030Z,48.80
2018-06-16T13:11:23.172Z,48.60
2018-06-16T13:13:51.334Z,48.60
2018-06-16T13:16:19.490Z,49.30
2018-06-16T13:18:47.641Z,48.70
2018-06-16T13:21:15.786Z,48.60
2018-06-16T13:23:43.941Z,48.90
2018-06-16T13:26:12.081Z,49.00
2018-06-16T13:28:40.233Z,48.80
2018-06-16T13:31:08.412Z,48.80
2018-06-16T13:33:36.567Z,48.90
2018-06-16T13:38:32.645Z,49.20
2018-06-16T13:41:00.816Z,49.50
2018-06-16T13:43:28.987Z,49.50
2018-06-16T13:45:57.162Z,49.60
2018-06-16T13:48:25.344Z,49.60
2018-06-16T13:50:53.542Z,49.20
2018-06-16T13:53:21.684Z,49.10
2018-06-16T13:55:49.853Z,49.20
2018-06-16T13:58:18.014Z,49.20
2018-06-16T14:00:46.184Z,48.40
2018-06-16T14:03:14.347Z,48.10
2018-06-16T14:08:10.447Z,48.50
2018-06-16T14:10:38.744Z,48.20
2018-06-16T14:13:07.125Z,48.60
2018-06-16T14:15:35.413Z,48.70
2018-06-16T14:18:03.562Z,48.50
2018-06-16T14:20:31.725Z,48.10
2018-06-16T14:22:59.883Z,47.90
2018-06-16T14:25:28.050Z,47.90
2018-06-16T14:27:56.235Z,48.10
2018-06-16T14:30:24.393Z,48.20
2018-06-16T14:32:52.560Z,48.20
2018-06-16T14:35:20.728Z,47.60
2018-06-16T14:37:48.903Z,47.40
2018-06-16T14:40:17.076Z,47.30
2018-06-16T14:42:45.244Z,47.40
2018-06-16T14:45:13.448Z,47.20
2018-06-16T14:47:41.577Z,46.80
2018-06-16T14:50:09.756Z,47.20
2018-06-16T14:52:37.954Z,47.50
2018-06-16T14:55:06.137Z,47.40
2018-06-16T14:57:34.313Z,46.80
2018-06-16T15:00:02.608Z,47.20
2018-06-16T15:02:30.764Z,47.30
2018-06-16T15:04:58.959Z,47.20
2018-06-16T15:07:27.082Z,47.00
2018-06-16T15:09:55.243Z,46.80
2018-06-16T15:12:23.414Z,46.80
2018-06-16T15:14:51.578Z,47.10
2018-06-16T15:17:19.737Z,46.70
2018-06-16T15:19:47.897Z,46.30
2018-06-16T15:22:16.050Z,46.20
2018-06-16T15:24:44.281Z,46.10
2018-06-16T15:27:12.457Z,46.20
2018-06-16T15:29:40.611Z,46.60
2018-06-16T15:32:08.761Z,45.50
2018-06-16T15:34:36.917Z,45.30
2018-06-16T15:37:05.074Z,45.30
2018-06-16T15:39:33.212Z,45.30
2018-06-16T15:42:01.357Z,45.60
2018-06-16T15:44:29.538Z,45.60
2018-06-16T15:46:57.798Z,45.80
2018-06-16T15:49:25.957Z,45.60
2018-06-16T15:51:54.121Z,45.50
2018-06-16T15:54:22.337Z,45.40
2018-06-16T15:56:50.642Z,45.40
2018-06-16T16:01:46.773Z,45.60
2018-06-16T16:04:15.262Z,45.40
2018-06-16T16:06:43.438Z,45.20
2018-06-16T16:09:11.598Z,45.20
2018-06-16T16:11:39.764Z,45.20
2018-06-16T16:14:07.921Z,45.10
2018-06-16T16:16:36.464Z,44.80
2018-06-16T16:19:04.625Z,44.90
2018-06-16T16:24:00.733Z,44.90
2018-06-16T16:26:28.894Z,44.70
2018-06-16T16:28:57.041Z,44.60
2018-06-16T16:31:25.219Z,44.70
2018-06-16T16:33:53.493Z,44.70
2018-06-16T16:36:21.718Z,44.80
2018-06-16T16:38:49.905Z,44.80
2018-06-16T16:41:18.152Z,45.60
2018-06-16T16:43:46.376Z,45.10
2018-06-16T16:46:14.574Z,45.20
2018-06-16T16:48:42.825Z,45.20
2018-06-16T16:51:11.009Z,45.20
2018-06-16T16:53:39.267Z,45.30
2018-06-16T16:56:07.445Z,45.30
2018-06-16T16:58:35.631Z,45.20
2018-06-16T17:01:03.910Z,45.30
2018-06-16T17:03:32.080Z,45.50
2018-06-16T17:06:00.265Z,45.50
2018-06-16T17:08:28.541Z,46.20
2018-06-16T17:10:56.713Z,45.30
2018-06-16T17:13:24.946Z,45.50
2018-06-16T17:15:53.202Z,45.70
2018-06-16T17:18:21.379Z,45.70
2018-06-16T17:20:49.544Z,45.60
2018-06-16T17:23:17.697Z,45.60
2018-06-16T17:25:45.858Z,45.70
2018-06-16T17:28:14.062Z,45.70
2018-06-16T17:30:42.225Z,45.80
2018-06-16T17:33:10.410Z,45.80
2018-06-16T17:35:38.576Z,45.80
2018-06-16T17:38:06.866Z,46.00
2018-06-16T17:40:35.029Z,46.10
2018-06-16T17:43:03.224Z,46.20
2018-06-16T17:45:31.386Z,46.40
2018-06-16T17:47:59.567Z,46.50
2018-06-16T17:50:27.764Z,46.70
2018-06-16T17:52:55.977Z,46.80
2018-06-16T17:55:24.146Z,46.90
2018-06-16T17:57:52.449Z,46.90
2018-06-16T18:00:20.626Z,47.00
2018-06-16T18:02:48.814Z,47.00
2018-06-16T18:05:16.970Z,47.00
2018-06-16T18:07:45.181Z,47.40
2018-06-16T18:10:13.354Z,47.90
2018-06-16T18:12:41.524Z,48.40
2018-06-16T18:15:09.693Z,49.10
2018-06-16T18:17:37.902Z,50.20
2018-06-16T18:20:06.065Z,51.10
2018-06-16T18:22:34.321Z,52.40
2018-06-16T18:25:02.497Z,53.50
2018-06-16T18:29:58.686Z,55.00
2018-06-16T18:32:26.842Z,55.40
2018-06-16T18:34:55.073Z,56.10
2018-06-16T18:37:23.221Z,56.60
2018-06-16T18:39:51.398Z,56.90
2018-06-16T18:42:19.595Z,57.40
2018-06-16T18:44:47.762Z,57.90
2018-06-16T18:47:15.918Z,58.70
2018-06-16T18:49:44.128Z,58.70
2018-06-16T18:52:12.252Z,59.10
2018-06-16T18:54:40.406Z,59.40
2018-06-16T18:57:08.590Z,59.80
2018-06-16T18:59:36.779Z,60.30
2018-06-16T19:02:04.950Z,60.60
2018-06-16T19:04:33.129Z,61.20
2018-06-16T19:07:01.293Z,61.70
2018-06-16T19:09:29.461Z,62.00
2018-06-16T19:11:57.641Z,62.40
2018-06-16T19:14:25.810Z,62.50
2018-06-16T19:16:53.964Z,62.60
2018-06-16T19:19:22.125Z,62.90
2018-06-16T19:21:50.282Z,63.40
2018-06-16T19:24:18.475Z,64.00
2018-06-16T19:26:46.629Z,64.40
2018-06-16T19:29:14.781Z,64.40
2018-06-16T19:31:42.921Z,64.40
2018-06-16T19:34:11.106Z,64.80
2018-06-16T19:36:39.253Z,65.20
2018-06-16T19:39:09.229Z,65.20
2018-06-16T19:41:37.506Z,64.70
2018-06-16T19:44:05.736Z,64.30
2018-06-16T19:46:33.904Z,63.80
2018-06-16T19:49:02.063Z,63.30
2018-06-16T19:51:30.219Z,63.30
2018-06-16T19:53:58.370Z,63.30
2018-06-16T19:56:26.544Z,63.40
2018-06-16T19:58:54.704Z,63.70
2018-06-16T20:01:22.869Z,63.90
2018-06-16T20:03:51.141Z,63.80
2018-06-16T20:06:19.368Z,64.00
2018-06-16T20:08:47.523Z,64.30
2018-06-16T20:11:15.681Z,64.60
2018-06-16T20:13:43.849Z,64.80
2018-06-16T20:16:12.007Z,65.10
2018-06-16T20:18:40.177Z,65.20
2018-06-16T20:21:08.338Z,65.50
2018-06-16T20:23:36.504Z,65.70
2018-06-16T20:26:04.676Z,65.80
2018-06-16T20:28:32.842Z,65.90
2018-06-16T20:31:01.006Z,65.70
2018-06-16T20:33:29.221Z,65.80
2018-06-16T20:35:57.385Z,66.00
2018-06-16T20:38:25.544Z,66.10
2018-06-16T20:40:53.714Z,66.10
2018-06-16T20:43:21.874Z,66.10
2018-06-16T20:45:50.056Z,66.20
2018-06-16T20:48:18.210Z,66.40
2018-06-16T20:50:46.363Z,66.20
2018-06-16T20:53:14.515Z,66.10
2018-06-16T20:55:42.666Z,66.00
2018-06-16T20:58:10.823Z,66.30
2018-06-16T21:00:38.965Z,66.70
2018-06-16T21:03:07.136Z,66.80
2018-06-16T21:05:35.282Z,66.80
2018-06-16T21:08:03.442Z,66.70
2018-06-16T21:10:31.634Z,66.80
2018-06-16T21:12:59.799Z,66.90
2018-06-16T21:15:27.946Z,67.00
2018-06-16T21:17:56.104Z,67.00
2018-06-16T21:20:24.293Z,67.00
2018-06-16T21:22:52.472Z,67.10
2018-06-16T21:25:20.646Z,67.20
2018-06-16T21:27:48.804Z,67.30
2018-06-16T21:30:16.954Z,67.30
2018-06-16T21:32:45.118Z,67.40
2018-06-16T21:35:13.325Z,67.50
2018-06-16T21:37:41.514Z,67.50
2018-06-16T21:40:09.677Z,67.60
2018-06-16T21:42:37.830Z,67.70
2018-06-16T21:45:06.189Z,67.70
2018-06-16T21:47:34.353Z,67.80
2018-06-16T21:50:02.528Z,67.90
2018-06-16T21:52:30.673Z,68.00
2018-06-16T21:54:58.838Z,68.00
2018-06-16T21:57:26.982Z,68.10
2018-06-16T21:59:55.124Z,68.20
2018-06-16T22:02:23.283Z,68.40
2018-06-16T22:04:51.433Z,69.10
2018-06-16T22:07:19.582Z,68.70
2018-06-16T22:09:47.741Z,68.70
2018-06-16T22:12:15.890Z,68.90
2018-06-16T22:14:44.059Z,69.00
2018-06-16T22:17:12.213Z,69.10
2018-06-16T22:19:40.379Z,69.10
2018-06-16T22:22:08.537Z,69.20
2018-06-16T22:24:36.695Z,69.40
2018-06-16T22:27:04.873Z,69.50
2018-06-16T22:29:33.070Z,69.70
2018-06-16T22:32:01.225Z,69.70
2018-06-16T22:34:29.392Z,69.70
2018-06-16T22:36:57.546Z,69.70
2018-06-16T22:39:25.748Z,69.90
2018-06-16T22:41:53.882Z,69.90
2018-06-16T22:46:50.008Z,70.10
2018-06-16T22:49:18.142Z,70.00
2018-06-16T22:51:46.302Z,70.00
2018-06-16T22:54:14.449Z,70.00
2018-06-16T22:56:42.603Z,70.00
2018-06-16T22:59:10.749Z,70.00
2018-06-16T23:01:38.896Z,70.00
2018-06-16T23:04:07.130Z,70.20
2018-06-16T23:06:35.285Z,70.20
2018-06-16T23:09:03.557Z,70.40
2018-06-16T23:11:31.750Z,70.40
2018-06-16T23:13:59.902Z,70.50
2018-06-16T23:16:28.065Z,70.60
2018-06-16T23:18:56.216Z,70.60
2018-06-16T23:21:24.383Z,70.70
2018-06-16T23:23:52.530Z,70.70
2018-06-16T23:26:20.714Z,70.80
2018-06-16T23:31:16.792Z,70.90
2018-06-16T23:33:44.929Z,71.00
2018-06-16T23:36:13.102Z,70.90
2018-06-16T23:38:41.265Z,70.90
2018-06-16T23:41:09.445Z,70.80
2018-06-16T23:43:37.601Z,70.60
2018-06-16T23:46:05.853Z,70.50
2018-06-16T23:48:34.000Z,71.30
2018-06-16T23:51:02.186Z,70.40
2018-06-16T23:53:30.349Z,71.10
2018-06-16T23:55:58.513Z,70.40
2018-06-16T23:58:26.742Z,70.50
